createdAt,value
2023-05-10T00:01:53.420Z,3.30
2023-05-10T00:04:21.127Z,3.00
2023-05-10T00:06:48.923Z,3.17
2023-05-10T00:09:16.714Z,3.80
2023-05-10T00:11:44.494Z,3.00
2023-05-10T00:14:13.114Z,3.40
2023-05-10T00:16:41.031Z,3.03
2023-05-10T00:19:08.571Z,3.33
2023-05-10T00:21:36.198Z,3.67
2023-05-10T00:24:03.987Z,3.58
2023-05-10T00:26:31.714Z,3.55
2023-05-10T00:28:59.817Z,3.80
2023-05-10T00:31:27.568Z,2.90
2023-05-10T00:33:55.042Z,3.40
2023-05-10T00:36:22.723Z,3.10
2023-05-10T00:38:50.249Z,2.70
2023-05-10T00:41:19.147Z,3.37
2023-05-10T00:43:47.655Z,3.30
2023-05-10T00:46:17.209Z,3.83
2023-05-10T00:48:45.716Z,3.08
2023-05-10T00:51:14.537Z,3.88
2023-05-10T00:53:42.295Z,3.13
2023-05-10T00:56:10.233Z,3.88
2023-05-10T00:58:37.851Z,3.55
2023-05-10T01:01:07.115Z,4.05
2023-05-10T01:03:34.660Z,3.97
2023-05-10T01:06:02.509Z,3.30
2023-05-10T01:08:30.283Z,3.60
2023-05-10T01:10:58.470Z,3.38
2023-05-10T01:13:39.318Z,3.45
2023-05-10T01:16:08.111Z,3.72
2023-05-10T01:18:39.445Z,3.63
2023-05-10T01:21:29.387Z,3.20
2023-05-10T01:24:19.175Z,3.95
2023-05-10T01:26:55.208Z,2.80
2023-05-10T01:29:37.276Z,3.28
2023-05-10T01:32:34.782Z,3.10
2023-05-10T01:35:16.705Z,2.83
2023-05-10T01:37:59.625Z,2.95
2023-05-10T01:40:39.653Z,2.90
2023-05-10T01:43:23.663Z,3.47
2023-05-10T01:46:12.249Z,3.43
2023-05-10T01:48:49.636Z,2.92
2023-05-10T01:51:23.252Z,3.20
2023-05-10T01:53:55.705Z,3.08
2023-05-10T01:56:27.650Z,2.97
2023-05-10T01:58:58.053Z,3.77
2023-05-10T02:01:27.481Z,3.22
2023-05-10T02:03:57.006Z,2.78
2023-05-10T02:06:26.726Z,3.28
2023-05-10T02:08:55.660Z,3.20
2023-05-10T02:11:25.754Z,3.13
2023-05-10T02:13:55.060Z,3.00
2023-05-10T02:16:32.335Z,3.47
2023-05-10T02:19:03.823Z,2.97
2023-05-10T02:21:34.231Z,2.95
2023-05-10T02:24:04.149Z,3.20
2023-05-10T02:26:34.668Z,2.90
2023-05-10T02:29:05.171Z,2.78
2023-05-10T02:31:34.739Z,3.50
2023-05-10T02:34:05.403Z,2.65
2023-05-10T02:36:34.420Z,3.10
2023-05-10T02:39:03.660Z,2.90
2023-05-10T02:41:33.790Z,3.20
2023-05-10T02:44:04.429Z,3.10
2023-05-10T02:46:32.686Z,2.95
2023-05-10T02:49:01.979Z,2.87
2023-05-10T02:51:34.969Z,2.97
2023-05-10T02:54:12.010Z,2.63
2023-05-10T02:56:51.905Z,2.85
2023-05-10T02:59:20.443Z,3.15
2023-05-10T03:01:50.503Z,2.80
2023-05-10T03:04:19.910Z,3.17
2023-05-10T03:06:48.258Z,3.35
2023-05-10T03:09:17.013Z,3.10
2023-05-10T03:11:57.221Z,2.95
2023-05-10T03:15:04.101Z,3.30
2023-05-10T03:18:08.402Z,2.40
2023-05-10T03:20:51.911Z,3.00
2023-05-10T03:23:19.643Z,2.45
2023-05-10T03:25:50.667Z,3.00
2023-05-10T03:28:20.502Z,3.30
2023-05-10T03:30:49.150Z,2.80
2023-05-10T03:33:17.354Z,3.05
2023-05-10T03:35:47.949Z,2.65
2023-05-10T03:38:16.945Z,2.88
2023-05-10T03:40:45.065Z,3.07
2023-05-10T03:43:13.057Z,3.13
2023-05-10T03:45:41.125Z,3.15
2023-05-10T03:48:08.681Z,2.50
2023-05-10T03:50:36.589Z,2.95
2023-05-10T03:53:05.159Z,2.90
2023-05-10T03:55:35.852Z,2.28
2023-05-10T03:58:03.876Z,2.38
2023-05-10T04:00:32.895Z,2.47
2023-05-10T04:03:01.249Z,3.33
2023-05-10T04:05:30.727Z,2.70
2023-05-10T04:07:58.307Z,3.20
2023-05-10T04:10:26.370Z,2.50
2023-05-10T04:12:54.152Z,2.40
2023-05-10T04:15:22.104Z,3.05
2023-05-10T04:17:50.144Z,2.90
2023-05-10T04:20:18.205Z,2.85
2023-05-10T04:22:46.279Z,3.10
2023-05-10T04:25:13.928Z,2.92
2023-05-10T04:27:42.167Z,3.03
2023-05-10T04:30:10.160Z,2.83
2023-05-10T04:32:38.365Z,3.10
2023-05-10T04:35:06.462Z,3.80
2023-05-10T04:37:34.286Z,3.00
2023-05-10T04:40:01.875Z,3.47
2023-05-10T04:42:29.737Z,3.20
2023-05-10T04:44:57.315Z,3.63
2023-05-10T04:47:25.294Z,3.88
2023-05-10T04:49:52.883Z,3.88
2023-05-10T04:52:20.777Z,3.50
2023-05-10T04:54:48.525Z,3.40
2023-05-10T04:57:16.566Z,3.38
2023-05-10T04:59:44.096Z,2.85
2023-05-10T05:02:11.966Z,3.05
2023-05-10T05:04:39.409Z,3.10
2023-05-10T05:07:07.418Z,2.80
2023-05-10T05:09:34.916Z,2.70
2023-05-10T05:12:02.950Z,3.00
2023-05-10T05:14:30.374Z,2.83
2023-05-10T05:16:58.575Z,3.00
2023-05-10T05:19:26.258Z,2.80
2023-05-10T05:21:54.243Z,3.17
2023-05-10T05:24:21.687Z,3.30
2023-05-10T05:26:50.017Z,2.95
2023-05-10T05:29:17.600Z,3.42
2023-05-10T05:31:45.487Z,3.30
2023-05-10T05:34:13.292Z,2.90
2023-05-10T05:36:41.338Z,2.85
2023-05-10T05:39:09.143Z,2.75
2023-05-10T05:41:37.171Z,2.88
2023-05-10T05:44:04.646Z,2.73
2023-05-10T05:46:32.619Z,2.42
2023-05-10T05:49:00.202Z,2.72
2023-05-10T05:51:28.159Z,2.55
2023-05-10T05:53:55.710Z,2.40
2023-05-10T05:56:25.813Z,2.37
2023-05-10T05:58:53.365Z,2.63
2023-05-10T06:01:21.592Z,2.78
2023-05-10T06:03:51.031Z,2.58
2023-05-10T06:06:20.750Z,2.55
2023-05-10T06:08:48.328Z,2.63
2023-05-10T06:11:16.210Z,2.78
2023-05-10T06:13:44.163Z,2.88
2023-05-10T06:16:12.516Z,2.20
2023-05-10T06:18:40.155Z,2.83
2023-05-10T06:21:08.302Z,2.53
2023-05-10T06:23:35.920Z,2.47
2023-05-10T06:26:04.521Z,2.75
2023-05-10T06:28:33.519Z,2.90
2023-05-10T06:31:01.541Z,2.70
2023-05-10T06:33:29.071Z,2.47
2023-05-10T06:35:57.199Z,2.80
2023-05-10T06:38:25.356Z,6.88
2023-05-10T06:40:53.334Z,2.92
2023-05-10T06:43:21.195Z,3.00
2023-05-10T06:45:52.580Z,2.63
2023-05-10T06:48:20.185Z,2.60
2023-05-10T06:50:48.176Z,2.80
2023-05-10T06:53:16.522Z,2.60
2023-05-10T06:55:44.467Z,2.60
2023-05-10T06:58:12.489Z,3.07
2023-05-10T07:00:41.818Z,3.38
2023-05-10T07:03:09.521Z,3.20
2023-05-10T07:05:37.536Z,3.20
2023-05-10T07:08:05.282Z,3.25
2023-05-10T07:10:34.030Z,2.57
2023-05-10T07:13:02.826Z,2.80
2023-05-10T07:15:30.793Z,2.63
2023-05-10T07:17:58.566Z,2.53
2023-05-10T07:20:26.546Z,4.88
2023-05-10T07:22:54.225Z,2.67
2023-05-10T07:25:22.082Z,3.75
2023-05-10T07:27:49.964Z,2.90
2023-05-10T07:30:17.981Z,2.33
2023-05-10T07:32:46.332Z,2.50
2023-05-10T07:35:14.387Z,2.50
2023-05-10T07:37:42.096Z,2.53
2023-05-10T07:40:10.706Z,2.40
2023-05-10T07:42:39.649Z,2.50
2023-05-10T07:45:08.270Z,2.50
2023-05-10T07:47:36.005Z,2.60
2023-05-10T07:50:04.043Z,2.60
2023-05-10T07:52:31.751Z,2.33
2023-05-10T07:54:59.640Z,2.35
2023-05-10T07:57:27.420Z,2.28
2023-05-10T07:59:55.347Z,2.20
2023-05-10T08:02:22.997Z,2.50
2023-05-10T08:04:52.945Z,2.22
2023-05-10T08:07:20.731Z,2.40
2023-05-10T08:09:48.644Z,2.30
2023-05-10T08:12:16.271Z,2.13
2023-05-10T08:14:44.297Z,2.05
2023-05-10T08:17:11.956Z,2.30
2023-05-10T08:19:39.886Z,2.00
2023-05-10T08:22:08.187Z,2.33
2023-05-10T08:24:39.608Z,1.93
2023-05-10T08:27:07.402Z,1.95
2023-05-10T08:29:46.246Z,2.38
2023-05-10T08:32:18.959Z,2.20
2023-05-10T08:34:46.807Z,1.80
2023-05-10T08:37:14.796Z,2.00
2023-05-10T08:39:42.731Z,1.90
2023-05-10T08:42:11.206Z,2.28
2023-05-10T08:44:39.390Z,1.70
2023-05-10T08:47:08.469Z,1.90
2023-05-10T08:49:38.805Z,1.80
2023-05-10T08:52:08.738Z,1.80
2023-05-10T08:54:37.911Z,1.60
2023-05-10T08:57:05.987Z,1.60
2023-05-10T08:59:34.586Z,1.40
2023-05-10T09:02:03.489Z,1.30
2023-05-10T09:04:32.205Z,1.60
2023-05-10T09:06:59.980Z,1.77
2023-05-10T09:09:28.964Z,1.70
2023-05-10T09:11:56.916Z,1.50
2023-05-10T09:14:26.526Z,1.50
2023-05-10T09:16:56.701Z,1.50
2023-05-10T09:19:24.679Z,1.80
2023-05-10T09:21:53.072Z,1.40
2023-05-10T09:24:21.153Z,1.70
2023-05-10T09:26:50.489Z,2.43
2023-05-10T09:29:18.790Z,2.50
2023-05-10T09:31:52.748Z,2.30
2023-05-10T09:34:33.346Z,1.92
2023-05-10T09:37:02.819Z,2.38
2023-05-10T09:39:35.287Z,1.80
2023-05-10T09:42:11.794Z,2.90
2023-05-10T09:45:16.581Z,1.83
2023-05-10T09:47:44.912Z,1.60
2023-05-10T09:50:19.809Z,1.52
2023-05-10T09:52:50.290Z,2.00
2023-05-10T09:55:23.433Z,1.67
2023-05-10T09:58:00.797Z,1.63
2023-05-10T10:00:29.702Z,1.77
2023-05-10T10:03:01.060Z,1.65
2023-05-10T10:05:36.280Z,1.57
2023-05-10T10:08:08.321Z,1.60
2023-05-10T10:10:37.012Z,1.52
2023-05-10T10:13:06.952Z,1.67
2023-05-10T10:15:36.207Z,1.75
2023-05-10T10:18:07.050Z,1.90
2023-05-10T10:20:39.418Z,1.88
2023-05-10T10:23:08.946Z,1.60
2023-05-10T10:25:37.391Z,1.42
2023-05-10T10:28:33.729Z,1.58
2023-05-10T10:31:15.371Z,1.90
2023-05-10T10:34:00.919Z,1.83
2023-05-10T10:36:28.826Z,1.70
2023-05-10T10:39:00.817Z,2.15
2023-05-10T10:42:01.824Z,1.73
2023-05-10T10:44:36.258Z,1.23
2023-05-10T10:47:20.182Z,2.20
2023-05-10T10:49:53.801Z,1.60
2023-05-10T10:52:35.021Z,1.60
2023-05-10T10:55:12.304Z,1.45
2023-05-10T10:57:42.650Z,1.50
2023-05-10T11:00:29.579Z,1.92
2023-05-10T11:03:26.912Z,1.63
2023-05-10T11:06:00.126Z,1.40
2023-05-10T11:08:36.443Z,1.40
2023-05-10T11:11:24.682Z,2.20
2023-05-10T11:13:54.242Z,2.35
2023-05-10T11:16:26.772Z,2.10
2023-05-10T11:19:03.710Z,1.80
2023-05-10T11:21:53.097Z,1.63
2023-05-10T11:24:24.233Z,1.50
2023-05-10T11:26:53.186Z,1.60
2023-05-10T11:29:21.469Z,1.45
2023-05-10T11:31:51.128Z,1.23
2023-05-10T11:34:32.578Z,1.40
2023-05-10T11:37:01.211Z,1.30
2023-05-10T11:39:31.154Z,1.75
2023-05-10T11:41:59.635Z,1.77
2023-05-10T11:44:34.308Z,1.50
2023-05-10T11:47:02.585Z,2.53
2023-05-10T11:49:30.476Z,2.00
2023-05-10T11:52:08.624Z,1.95
2023-05-10T11:54:36.601Z,1.77
2023-05-10T11:57:08.258Z,1.60
2023-05-10T11:59:44.030Z,1.33
2023-05-10T12:02:19.437Z,1.40
2023-05-10T12:04:54.506Z,1.45
2023-05-10T12:07:22.944Z,1.73
2023-05-10T12:10:11.163Z,1.35
2023-05-10T12:12:44.792Z,1.55
2023-05-10T12:15:22.028Z,1.40
2023-05-10T12:17:50.452Z,1.50
2023-05-10T12:20:20.759Z,1.70
2023-05-10T12:22:55.422Z,1.75
2023-05-10T12:25:24.738Z,1.20
2023-05-10T12:30:43.150Z,1.17
2023-05-10T12:33:13.283Z,1.30
2023-05-10T12:35:49.853Z,1.27
2023-05-10T12:38:44.374Z,1.23
2023-05-10T12:41:14.417Z,1.40
2023-05-10T12:43:43.091Z,1.50
2023-05-10T12:46:18.548Z,1.50
2023-05-10T12:48:47.666Z,1.33
2023-05-10T12:51:18.533Z,1.48
2023-05-10T12:53:49.736Z,1.60
2023-05-10T12:56:17.495Z,1.60
2023-05-10T12:58:49.392Z,1.50
2023-05-10T13:01:17.134Z,1.60
2023-05-10T13:03:45.207Z,1.73
2023-05-10T13:06:15.002Z,1.50
2023-05-10T13:08:46.192Z,1.30
2023-05-10T13:11:17.789Z,1.60
2023-05-10T13:13:45.910Z,1.60
2023-05-10T13:16:13.538Z,1.70
2023-05-10T13:18:41.543Z,1.30
2023-05-10T13:21:09.032Z,1.30
2023-05-10T13:23:36.868Z,1.92
2023-05-10T13:26:04.632Z,1.73
2023-05-10T13:28:32.648Z,1.88
2023-05-10T13:31:01.391Z,1.40
2023-05-10T13:33:29.506Z,1.00
2023-05-10T13:35:56.981Z,1.40
2023-05-10T13:38:24.986Z,1.45
2023-05-10T13:40:54.131Z,1.45
2023-05-10T13:43:27.781Z,1.27
2023-05-10T13:45:58.264Z,1.23
2023-05-10T13:48:26.100Z,1.33
2023-05-10T13:50:53.805Z,1.30
2023-05-10T13:53:22.233Z,1.33
2023-05-10T13:55:50.884Z,1.30
2023-05-10T13:58:18.698Z,1.10
2023-05-10T14:00:46.511Z,1.60
2023-05-10T14:03:14.428Z,1.30
2023-05-10T14:05:42.262Z,1.40
2023-05-10T14:08:11.281Z,1.10
2023-05-10T14:10:39.256Z,1.30
2023-05-10T14:13:07.678Z,1.83
2023-05-10T14:15:35.266Z,1.50
2023-05-10T14:18:03.239Z,1.40
2023-05-10T14:20:31.356Z,1.70
2023-05-10T14:22:59.334Z,1.58
2023-05-10T14:25:26.987Z,2.03
2023-05-10T14:27:55.936Z,1.63
2023-05-10T14:30:23.590Z,1.63
2023-05-10T14:32:51.536Z,1.50
2023-05-10T14:35:19.964Z,1.85
2023-05-10T14:37:50.040Z,1.98
2023-05-10T14:40:18.451Z,1.98
2023-05-10T14:42:46.672Z,1.50
2023-05-10T14:45:14.724Z,1.30
2023-05-10T14:47:42.698Z,1.30
2023-05-10T14:50:10.820Z,1.42
2023-05-10T14:52:43.203Z,1.42
2023-05-10T14:55:14.699Z,1.35
2023-05-10T14:58:02.747Z,1.50
2023-05-10T15:00:56.339Z,1.67
2023-05-10T15:03:31.929Z,1.70
2023-05-10T15:05:59.913Z,2.20
2023-05-10T15:08:27.687Z,1.85
2023-05-10T15:10:57.061Z,2.00
2023-05-10T15:13:24.732Z,1.30
2023-05-10T15:15:52.334Z,1.50
2023-05-10T15:18:20.269Z,1.63
2023-05-10T15:20:47.873Z,1.25
2023-05-10T15:23:33.100Z,1.30
2023-05-10T15:26:03.186Z,1.80
2023-05-10T15:28:34.673Z,2.00
2023-05-10T15:31:02.337Z,1.50
2023-05-10T15:33:30.366Z,1.30
2023-05-10T15:35:58.457Z,2.00
2023-05-10T15:38:27.179Z,1.07
2023-05-10T15:40:58.660Z,1.73
2023-05-10T15:43:26.744Z,1.50
2023-05-10T15:45:54.612Z,1.20
2023-05-10T15:48:22.688Z,1.10
2023-05-10T15:50:50.270Z,1.40
2023-05-10T15:53:18.408Z,1.50
2023-05-10T15:55:46.098Z,1.30
2023-05-10T15:58:13.959Z,1.40
2023-05-10T16:00:41.751Z,1.58
2023-05-10T16:03:09.814Z,1.77
2023-05-10T16:05:37.353Z,2.13
2023-05-10T16:08:05.350Z,1.80
2023-05-10T16:10:33.796Z,1.75
2023-05-10T16:13:04.054Z,1.80
2023-05-10T16:15:31.723Z,2.00
2023-05-10T16:18:00.170Z,2.15
2023-05-10T16:20:28.132Z,1.60
2023-05-10T16:22:56.448Z,1.60
2023-05-10T16:25:28.352Z,1.88
2023-05-10T16:27:56.502Z,2.37
2023-05-10T16:30:27.689Z,2.35
2023-05-10T16:33:00.629Z,2.35
2023-05-10T16:35:30.302Z,2.13
2023-05-10T16:37:58.317Z,2.35
2023-05-10T16:40:26.153Z,2.50
2023-05-10T16:42:53.943Z,1.92
2023-05-10T16:45:21.903Z,2.53
2023-05-10T16:47:50.019Z,2.30
2023-05-10T16:50:17.667Z,2.17
2023-05-10T16:52:45.578Z,2.50
2023-05-10T16:55:13.360Z,2.17
2023-05-10T16:57:41.258Z,2.22
2023-05-10T17:00:12.213Z,2.10
2023-05-10T17:02:40.341Z,2.38
2023-05-10T17:05:08.970Z,1.90
2023-05-10T17:07:36.903Z,2.00
2023-05-10T17:10:04.947Z,2.83
2023-05-10T17:12:32.891Z,2.10
2023-05-10T17:15:00.525Z,2.17
2023-05-10T17:17:28.951Z,1.70
2023-05-10T17:19:56.767Z,2.28
2023-05-10T17:22:25.322Z,2.45
2023-05-10T17:24:52.932Z,2.20
2023-05-10T17:27:21.011Z,2.50
2023-05-10T17:29:49.023Z,2.27
2023-05-10T17:32:16.962Z,3.15
2023-05-10T17:34:44.969Z,2.80
2023-05-10T17:37:12.808Z,2.67
2023-05-10T17:39:40.560Z,2.65
2023-05-10T17:42:08.699Z,2.80
2023-05-10T17:44:36.370Z,2.80
2023-05-10T17:47:04.594Z,2.83
2023-05-10T17:49:41.399Z,2.70
2023-05-10T17:52:09.287Z,2.58
2023-05-10T17:54:37.451Z,2.70
2023-05-10T17:57:05.588Z,3.00
2023-05-10T17:59:33.331Z,2.90
2023-05-10T18:02:02.862Z,2.50
2023-05-10T18:04:30.640Z,2.75
2023-05-10T18:07:07.874Z,2.93
2023-05-10T18:09:52.142Z,2.70
2023-05-10T18:12:20.158Z,3.20
2023-05-10T18:14:47.733Z,3.65
2023-05-10T18:17:26.992Z,3.88
2023-05-10T18:19:57.784Z,4.23
2023-05-10T18:22:25.780Z,3.50
2023-05-10T18:24:53.564Z,2.88
2023-05-10T18:27:21.458Z,2.10
2023-05-10T18:29:49.418Z,2.22
2023-05-10T18:32:17.820Z,2.10
2023-05-10T18:34:45.505Z,2.28
2023-05-10T18:37:14.019Z,2.50
2023-05-10T18:39:42.380Z,2.28
2023-05-10T18:42:10.321Z,2.30
2023-05-10T18:44:38.086Z,2.50
2023-05-10T18:47:06.241Z,2.45
2023-05-10T18:49:33.850Z,1.83
2023-05-10T18:52:01.856Z,2.60
2023-05-10T18:54:30.397Z,2.70
2023-05-10T18:56:59.052Z,2.20
2023-05-10T18:59:28.175Z,2.63
2023-05-10T19:01:57.485Z,3.10
2023-05-10T19:04:25.665Z,2.67
2023-05-10T19:06:53.625Z,3.40
2023-05-10T19:09:21.455Z,2.57
2023-05-10T19:11:49.344Z,2.60
2023-05-10T19:14:16.943Z,2.20
2023-05-10T19:16:45.146Z,2.53
2023-05-10T19:19:14.626Z,2.67
2023-05-10T19:21:42.555Z,2.57
2023-05-10T19:24:11.228Z,2.03
2023-05-10T19:26:39.412Z,2.50
2023-05-10T19:29:07.378Z,2.25
2023-05-10T19:31:35.624Z,2.25
2023-05-10T19:34:06.054Z,2.73
2023-05-10T19:36:34.876Z,2.58
2023-05-10T19:39:03.074Z,2.83
2023-05-10T19:41:30.803Z,2.53
2023-05-10T19:43:58.858Z,2.28
2023-05-10T19:46:26.311Z,2.27
2023-05-10T19:48:54.235Z,2.83
2023-05-10T19:51:22.112Z,2.55
2023-05-10T19:53:50.132Z,2.10
2023-05-10T19:56:18.598Z,2.42
2023-05-10T19:58:46.515Z,3.67
2023-05-10T20:01:14.179Z,2.47
2023-05-10T20:03:42.087Z,3.10
2023-05-10T20:06:09.794Z,2.50
2023-05-10T20:08:37.571Z,3.00
2023-05-10T20:11:05.282Z,3.17
2023-05-10T20:13:33.753Z,3.47
2023-05-10T20:16:02.594Z,3.90
2023-05-10T20:18:30.538Z,3.72
2023-05-10T20:21:00.077Z,3.15
2023-05-10T20:23:28.168Z,3.87
2023-05-10T20:25:55.728Z,3.63
2023-05-10T20:28:26.479Z,2.63
2023-05-10T20:30:55.803Z,3.05
2023-05-10T20:33:24.016Z,2.67
2023-05-10T20:35:52.863Z,2.80
2023-05-10T20:38:21.665Z,2.65
2023-05-10T20:40:49.537Z,3.03
2023-05-10T20:43:17.598Z,2.50
2023-05-10T20:45:45.554Z,3.00
2023-05-10T20:48:13.577Z,2.97
2023-05-10T20:50:41.283Z,3.38
2023-05-10T20:53:09.328Z,3.40
2023-05-10T20:55:37.159Z,3.10
2023-05-10T20:58:05.331Z,3.60
2023-05-10T21:00:32.982Z,2.97
2023-05-10T21:03:00.831Z,3.10
2023-05-10T21:05:28.561Z,3.60
2023-05-10T21:07:56.537Z,3.08
2023-05-10T21:10:28.769Z,3.00
2023-05-10T21:12:56.826Z,2.97
2023-05-10T21:15:24.799Z,2.45
2023-05-10T21:17:54.313Z,2.65
2023-05-10T21:20:22.068Z,3.10
2023-05-10T21:22:50.182Z,2.80
2023-05-10T21:25:18.333Z,3.10
2023-05-10T21:27:46.440Z,2.97
2023-05-10T21:30:14.046Z,3.13
2023-05-10T21:32:42.026Z,3.50
2023-05-10T21:35:09.991Z,3.30
2023-05-10T21:37:38.033Z,2.97
2023-05-10T21:40:06.300Z,3.08
2023-05-10T21:42:34.170Z,3.70
2023-05-10T21:45:02.087Z,3.00
2023-05-10T21:47:30.081Z,3.55
2023-05-10T21:49:57.726Z,3.50
2023-05-10T21:52:25.639Z,3.47
2023-05-10T21:54:53.218Z,3.60
2023-05-10T21:57:21.837Z,4.20
2023-05-10T21:59:49.304Z,3.50
2023-05-10T22:02:17.258Z,3.60
2023-05-10T22:04:44.804Z,3.47
2023-05-10T22:07:13.618Z,3.50
2023-05-10T22:09:41.898Z,3.55
2023-05-10T22:12:09.655Z,3.13
2023-05-10T22:14:37.580Z,3.27
2023-05-10T22:17:05.744Z,3.33
2023-05-10T22:19:33.275Z,3.40
2023-05-10T22:22:01.116Z,3.15
2023-05-10T22:24:28.773Z,3.42
2023-05-10T22:26:56.766Z,3.77
2023-05-10T22:29:24.521Z,3.65
2023-05-10T22:31:52.474Z,4.05
2023-05-10T22:34:19.925Z,3.72
2023-05-10T22:36:49.270Z,3.17
2023-05-10T22:39:17.485Z,3.47
2023-05-10T22:41:45.372Z,3.58
2023-05-10T22:44:12.711Z,3.90
2023-05-10T22:46:40.474Z,3.80
2023-05-10T22:52:33.415Z,4.03
2023-05-10T22:55:01.218Z,3.63
2023-05-10T22:57:29.162Z,3.83
2023-05-10T22:59:56.889Z,3.80
2023-05-10T23:02:24.916Z,3.30
2023-05-10T23:04:52.525Z,3.50
2023-05-10T23:07:20.376Z,3.60
2023-05-10T23:09:48.014Z,3.85
2023-05-10T23:12:15.930Z,3.53
2023-05-10T23:14:43.760Z,3.45
2023-05-10T23:17:11.656Z,3.40
2023-05-10T23:19:39.281Z,3.30
2023-05-10T23:22:08.816Z,3.65
2023-05-10T23:24:36.450Z,3.42
2023-05-10T23:27:04.339Z,3.90
2023-05-10T23:29:32.864Z,4.10
2023-05-10T23:32:01.043Z,3.88
2023-05-10T23:34:28.657Z,4.00
2023-05-10T23:36:56.842Z,3.50
2023-05-10T23:39:24.375Z,4.05
2023-05-10T23:41:52.275Z,3.40
2023-05-10T23:44:19.914Z,3.65
2023-05-10T23:46:47.714Z,3.70
2023-05-10T23:49:15.617Z,3.72
2023-05-10T23:51:44.727Z,3.45
2023-05-10T23:54:12.641Z,3.77
2023-05-10T23:56:40.575Z,3.30
2023-05-10T23:59:08.252Z,3.70
